createdAt,value
2023-02-24T00:00:08.066Z,1014.88
2023-02-24T00:01:08.120Z,1014.89
2023-02-24T00:02:08.185Z,1014.89
2023-02-24T00:03:08.047Z,1014.89
2023-02-24T00:04:08.058Z,1014.83
2023-02-24T00:05:07.999Z,1014.81
2023-02-24T00:06:08.048Z,1014.82
2023-02-24T00:07:07.990Z,1014.76
2023-02-24T00:08:07.970Z,1014.77
2023-02-24T00:09:07.969Z,1014.73
2023-02-24T00:10:07.968Z,1014.69
2023-02-24T00:11:07.910Z,1014.74
2023-02-24T00:12:07.911Z,1014.70
2023-02-24T00:13:07.939Z,1014.67
2023-02-24T00:14:07.890Z,1014.70
2023-02-24T00:15:07.874Z,1014.71
2023-02-24T00:16:07.982Z,1014.74
2023-02-24T00:17:07.926Z,1014.72
2023-02-24T00:18:07.884Z,1014.70
2023-02-24T00:19:07.810Z,1014.72
2023-02-24T00:20:07.823Z,1014.73
2023-02-24T00:21:07.823Z,1014.70
2023-02-24T00:22:07.806Z,1014.80
2023-02-24T00:23:07.800Z,1014.72
2023-02-24T00:24:07.748Z,1014.73
2023-02-24T00:25:07.760Z,1014.72
2023-02-24T00:26:07.786Z,1014.71
2023-02-24T00:27:08.064Z,1014.74
2023-02-24T00:28:07.700Z,1014.72
2023-02-24T00:29:07.712Z,1014.77
2023-02-24T00:30:07.736Z,1014.74
2023-02-24T00:31:07.734Z,1014.76
2023-02-24T00:32:08.063Z,1014.75
2023-02-24T00:33:07.734Z,1014.72
2023-02-24T00:34:07.622Z,1014.66
2023-02-24T00:35:07.623Z,1014.66
2023-02-24T00:36:07.592Z,1014.64
2023-02-24T00:37:07.682Z,1014.65
2023-02-24T00:38:07.584Z,1014.60
2023-02-24T00:39:07.539Z,1014.58
2023-02-24T00:40:07.598Z,1014.59
2023-02-24T00:41:07.598Z,1014.54
2023-02-24T00:42:07.513Z,1014.52
2023-02-24T00:43:07.544Z,1014.52
2023-02-24T00:44:07.485Z,1014.56
2023-02-24T00:45:07.537Z,1014.54
2023-02-24T00:46:07.529Z,1014.58
2023-02-24T00:47:07.454Z,1014.53
2023-02-24T00:48:07.445Z,1014.53
2023-02-24T00:49:07.439Z,1014.46
2023-02-24T00:50:07.449Z,1014.50
2023-02-24T00:51:07.399Z,1014.47
2023-02-24T00:52:07.401Z,1014.45
2023-02-24T00:53:07.385Z,1014.46
2023-02-24T00:54:07.365Z,1014.44
2023-02-24T00:55:07.375Z,1014.44
2023-02-24T00:56:07.348Z,1014.45
2023-02-24T00:57:07.355Z,1014.40
2023-02-24T00:58:07.395Z,1014.37
2023-02-24T00:59:07.298Z,1014.38
2023-02-24T01:00:07.346Z,1014.33
2023-02-24T01:01:07.276Z,1014.36
2023-02-24T01:02:07.520Z,1014.37
2023-02-24T01:03:07.257Z,1014.42
2023-02-24T01:04:07.240Z,1014.45
2023-02-24T01:05:07.299Z,1014.44
2023-02-24T01:06:07.212Z,1014.42
2023-02-24T01:07:07.183Z,1014.38
2023-02-24T01:08:07.234Z,1014.30
2023-02-24T01:09:07.164Z,1014.32
2023-02-24T01:10:07.180Z,1014.28
2023-02-24T01:11:07.148Z,1014.30
2023-02-24T01:12:07.185Z,1014.26
2023-02-24T01:13:07.120Z,1014.25
2023-02-24T01:14:07.097Z,1014.31
2023-02-24T01:15:07.110Z,1014.25
2023-02-24T01:16:07.171Z,1014.27
2023-02-24T01:17:07.056Z,1014.31
2023-02-24T01:18:07.045Z,1014.30
2023-02-24T01:19:07.081Z,1014.31
2023-02-24T01:20:07.052Z,1014.31
2023-02-24T01:21:07.018Z,1014.32
2023-02-24T01:22:06.997Z,1014.39
2023-02-24T01:23:06.991Z,1014.37
2023-02-24T01:24:07.069Z,1014.36
2023-02-24T01:25:06.970Z,1014.33
2023-02-24T01:26:06.999Z,1014.34
2023-02-24T01:27:06.971Z,1014.30
2023-02-24T01:28:06.932Z,1014.23
2023-02-24T01:29:06.902Z,1014.16
2023-02-24T01:30:06.888Z,1014.20
2023-02-24T01:31:07.233Z,1014.19
2023-02-24T01:32:07.033Z,1014.18
2023-02-24T01:33:07.098Z,1014.15
2023-02-24T01:34:06.856Z,1014.15
2023-02-24T01:35:06.828Z,1014.09
2023-02-24T01:36:06.909Z,1014.09
2023-02-24T01:37:06.799Z,1014.08
2023-02-24T01:38:06.795Z,1014.08
2023-02-24T01:39:06.768Z,1014.10
2023-02-24T01:40:06.821Z,1014.07
2023-02-24T01:41:06.805Z,1014.20
2023-02-24T01:42:06.759Z,1014.22
2023-02-24T01:43:06.754Z,1014.18
2023-02-24T01:44:06.722Z,1014.19
2023-02-24T01:45:06.724Z,1014.13
2023-02-24T01:46:06.734Z,1014.11
2023-02-24T01:47:06.661Z,1014.07
2023-02-24T01:48:06.699Z,1014.06
2023-02-24T01:49:06.642Z,1014.08
2023-02-24T01:50:06.668Z,1014.07
2023-02-24T01:51:06.711Z,1014.07
2023-02-24T01:52:06.607Z,1014.05
2023-02-24T01:53:06.591Z,1014.09
2023-02-24T01:54:06.641Z,1014.08
2023-02-24T01:55:06.565Z,1014.03
2023-02-24T01:56:06.602Z,1014.02
2023-02-24T01:57:06.558Z,1014.04
2023-02-24T01:58:06.570Z,1014.01
2023-02-24T01:59:06.527Z,1013.92
2023-02-24T02:00:06.537Z,1013.91
2023-02-24T02:01:06.532Z,1013.92
2023-02-24T02:02:06.628Z,1013.91
2023-02-24T02:03:06.462Z,1013.89
2023-02-24T02:04:06.448Z,1013.92
2023-02-24T02:05:06.430Z,1013.92
2023-02-24T02:06:06.472Z,1013.96
2023-02-24T02:07:06.407Z,1013.91
2023-02-24T02:08:06.399Z,1013.89
2023-02-24T02:09:06.456Z,1013.89
2023-02-24T02:10:06.422Z,1013.88
2023-02-24T02:11:06.412Z,1013.88
2023-02-24T02:12:06.403Z,1013.86
2023-02-24T02:13:06.332Z,1013.83
2023-02-24T02:14:06.416Z,1013.84
2023-02-24T02:15:06.340Z,1013.82
2023-02-24T02:16:06.391Z,1013.82
2023-02-24T02:17:06.283Z,1013.83
2023-02-24T02:18:06.271Z,1013.84
2023-02-24T02:19:06.253Z,1013.78
2023-02-24T02:20:06.252Z,1013.79
2023-02-24T02:21:06.253Z,1013.78
2023-02-24T02:22:06.268Z,1013.77
2023-02-24T02:23:06.279Z,1013.78
2023-02-24T02:24:06.185Z,1013.80
2023-02-24T02:25:06.179Z,1013.74
2023-02-24T02:26:06.233Z,1013.73
2023-02-24T02:27:06.163Z,1013.71
2023-02-24T02:28:06.150Z,1013.74
2023-02-24T02:29:06.180Z,1013.70
2023-02-24T02:30:06.112Z,1013.72
2023-02-24T02:31:06.208Z,1013.70
2023-02-24T02:32:06.188Z,1013.73
2023-02-24T02:33:06.117Z,1013.67
2023-02-24T02:34:06.080Z,1013.68
2023-02-24T02:35:06.044Z,1013.64
2023-02-24T02:36:06.037Z,1013.69
2023-02-24T02:37:06.130Z,1013.68
2023-02-24T02:38:06.007Z,1013.67
2023-02-24T02:39:06.007Z,1013.63
2023-02-24T02:40:05.983Z,1013.60
2023-02-24T02:41:05.999Z,1013.58
2023-02-24T02:42:05.989Z,1013.56
2023-02-24T02:43:05.937Z,1013.52
2023-02-24T02:44:05.922Z,1013.49
2023-02-24T02:45:05.912Z,1013.50
2023-02-24T02:46:05.943Z,1013.50
2023-02-24T02:47:05.887Z,1013.47
2023-02-24T02:48:05.898Z,1013.47
2023-02-24T02:49:05.864Z,1013.53
2023-02-24T02:50:05.853Z,1013.56
2023-02-24T02:51:05.888Z,1013.55
2023-02-24T02:52:05.880Z,1013.55
2023-02-24T02:53:05.797Z,1013.57
2023-02-24T02:54:05.825Z,1013.56
2023-02-24T02:55:05.770Z,1013.55
2023-02-24T02:56:05.783Z,1013.50
2023-02-24T02:57:05.792Z,1013.49
2023-02-24T02:58:05.815Z,1013.45
2023-02-24T02:59:05.722Z,1013.42
2023-02-24T03:00:05.720Z,1013.41
2023-02-24T03:01:05.780Z,1013.38
2023-02-24T03:02:05.690Z,1013.40
2023-02-24T03:03:11.790Z,1013.40
2023-02-24T03:04:05.703Z,1013.41
2023-02-24T03:05:05.791Z,1013.43
2023-02-24T03:06:05.660Z,1013.41
2023-02-24T03:07:05.749Z,1013.39
2023-02-24T03:08:05.749Z,1013.41
2023-02-24T03:09:05.618Z,1013.44
2023-02-24T03:10:05.668Z,1013.45
2023-02-24T03:11:05.684Z,1013.32
2023-02-24T03:12:05.715Z,1013.34
2023-02-24T03:13:05.674Z,1013.34
2023-02-24T03:14:05.559Z,1013.32
2023-02-24T03:15:05.585Z,1013.32
2023-02-24T03:16:05.558Z,1013.41
2023-02-24T03:17:05.646Z,1013.30
2023-02-24T03:18:05.484Z,1013.29
2023-02-24T03:19:05.477Z,1013.31
2023-02-24T03:20:05.462Z,1013.30
2023-02-24T03:21:05.452Z,1013.28
2023-02-24T03:22:05.421Z,1013.29
2023-02-24T03:23:05.412Z,1013.30
2023-02-24T03:24:05.431Z,1013.26
2023-02-24T03:25:05.406Z,1013.27
2023-02-24T03:26:05.369Z,1013.28
2023-02-24T03:27:05.376Z,1013.29
2023-02-24T03:28:05.378Z,1013.25
2023-02-24T03:29:05.344Z,1013.28
2023-02-24T03:30:05.315Z,1013.27
2023-02-24T03:31:05.355Z,1013.25
2023-02-24T03:32:05.468Z,1013.23
2023-02-24T03:33:05.277Z,1013.20
2023-02-24T03:34:05.311Z,1013.19
2023-02-24T03:35:05.277Z,1013.22
2023-02-24T03:36:05.248Z,1013.16
2023-02-24T03:37:05.227Z,1013.14
2023-02-24T03:38:05.239Z,1013.19
2023-02-24T03:39:05.250Z,1013.17
2023-02-24T03:40:05.232Z,1013.21
2023-02-24T03:41:05.177Z,1013.18
2023-02-24T03:42:05.173Z,1013.16
2023-02-24T03:43:05.150Z,1013.12
2023-02-24T03:44:05.170Z,1013.09
2023-02-24T03:45:05.123Z,1013.08
2023-02-24T03:46:05.178Z,1013.14
2023-02-24T03:47:05.107Z,1013.15
2023-02-24T03:48:05.083Z,1013.16
2023-02-24T03:49:05.114Z,1013.20
2023-02-24T03:50:05.060Z,1013.17
2023-02-24T03:51:05.060Z,1013.14
2023-02-24T03:52:05.029Z,1013.13
2023-02-24T03:53:05.048Z,1013.14
2023-02-24T03:54:05.044Z,1013.15
2023-02-24T03:55:05.014Z,1013.17
2023-02-24T03:56:04.977Z,1013.13
2023-02-24T03:57:04.982Z,1013.15
2023-02-24T03:58:04.992Z,1013.18
2023-02-24T03:59:03.938Z,1013.17
2023-02-24T04:00:04.953Z,1013.22
2023-02-24T04:01:04.917Z,1013.22
2023-02-24T04:02:04.941Z,1013.21
2023-02-24T04:03:04.892Z,1013.17
2023-02-24T04:04:04.867Z,1013.19
2023-02-24T04:05:04.920Z,1013.14
2023-02-24T04:06:04.846Z,1013.12
2023-02-24T04:07:04.844Z,1013.19
2023-02-24T04:08:04.820Z,1013.15
2023-02-24T04:09:04.805Z,1013.14
2023-02-24T04:10:04.826Z,1013.18
2023-02-24T04:11:04.790Z,1013.14
2023-02-24T04:12:04.765Z,1013.12
2023-02-24T04:13:04.777Z,1013.12
2023-02-24T04:14:04.740Z,1013.12
2023-02-24T04:15:04.814Z,1013.11
2023-02-24T04:16:04.778Z,1013.11
2023-02-24T04:17:04.715Z,1013.06
2023-02-24T04:18:04.701Z,1013.09
2023-02-24T04:19:04.700Z,1013.11
2023-02-24T04:20:04.676Z,1013.09
2023-02-24T04:21:04.664Z,1013.08
2023-02-24T04:22:04.631Z,1013.06
2023-02-24T04:23:04.655Z,1013.03
2023-02-24T04:24:04.597Z,1013.01
2023-02-24T04:25:04.601Z,1013.01
2023-02-24T04:26:04.585Z,1012.98
2023-02-24T04:27:04.574Z,1012.93
2023-02-24T04:28:04.595Z,1012.94
2023-02-24T04:29:04.550Z,1012.92
2023-02-24T04:30:04.559Z,1012.91
2023-02-24T04:31:04.686Z,1012.92
2023-02-24T04:32:04.660Z,1012.93
2023-02-24T04:33:04.534Z,1012.90
2023-02-24T04:34:04.504Z,1012.90
2023-02-24T04:35:04.499Z,1012.93
2023-02-24T04:36:04.458Z,1012.96
2023-02-24T04:37:04.487Z,1012.97
2023-02-24T04:38:04.488Z,1012.91
2023-02-24T04:39:06.549Z,1012.88
2023-02-24T04:40:04.474Z,1012.83
2023-02-24T04:41:04.394Z,1012.81
2023-02-24T04:42:04.370Z,1012.83
2023-02-24T04:43:04.405Z,1012.83
2023-02-24T04:44:04.346Z,1012.80
2023-02-24T04:45:04.350Z,1012.76
2023-02-24T04:46:04.342Z,1012.71
2023-02-24T04:47:04.316Z,1012.72
2023-02-24T04:48:04.296Z,1012.66
2023-02-24T04:49:04.308Z,1012.64
2023-02-24T04:50:04.287Z,1012.62
2023-02-24T04:51:04.266Z,1012.56
2023-02-24T04:52:04.248Z,1012.56
2023-02-24T04:53:04.235Z,1012.56
2023-02-24T04:54:04.247Z,1012.55
2023-02-24T04:55:04.234Z,1012.54
2023-02-24T04:56:04.190Z,1012.54
2023-02-24T04:57:04.186Z,1012.46
2023-02-24T04:58:04.169Z,1012.40
2023-02-24T04:59:04.172Z,1012.38
2023-02-24T05:00:04.135Z,1012.40
2023-02-24T05:01:04.127Z,1012.41
2023-02-24T05:02:04.121Z,1012.37
2023-02-24T05:03:04.111Z,1012.44
2023-02-24T05:04:04.203Z,1012.40
2023-02-24T05:05:04.079Z,1012.38
2023-02-24T05:06:04.072Z,1012.33
2023-02-24T05:07:04.077Z,1012.36
2023-02-24T05:08:04.049Z,1012.36
2023-02-24T05:09:04.054Z,1012.34
2023-02-24T05:10:04.017Z,1012.36
2023-02-24T05:11:04.182Z,1012.32
2023-02-24T05:12:03.988Z,1012.30
2023-02-24T05:13:03.980Z,1012.28
2023-02-24T05:14:03.967Z,1012.27
2023-02-24T05:15:03.946Z,1012.27
2023-02-24T05:16:03.969Z,1012.26
2023-02-24T05:17:03.925Z,1012.18
2023-02-24T05:18:03.905Z,1012.22
2023-02-24T05:19:03.931Z,1012.23
2023-02-24T05:20:03.895Z,1012.23
2023-02-24T05:21:03.979Z,1012.19
2023-02-24T05:22:03.883Z,1012.20
2023-02-24T05:23:03.902Z,1012.17
2023-02-24T05:24:03.973Z,1012.14
2023-02-24T05:25:03.824Z,1012.14
2023-02-24T05:26:03.819Z,1012.10
2023-02-24T05:27:04.068Z,1012.10
2023-02-24T05:28:03.872Z,1012.10
2023-02-24T05:29:03.836Z,1012.08
2023-02-24T05:30:03.768Z,1012.05
2023-02-24T05:31:03.936Z,1012.08
2023-02-24T05:32:03.921Z,1012.07
2023-02-24T05:33:03.732Z,1012.08
2023-02-24T05:34:03.730Z,1012.03
2023-02-24T05:35:03.706Z,1012.01
2023-02-24T05:36:05.279Z,1011.95
2023-02-24T05:37:03.733Z,1011.99
2023-02-24T05:38:03.656Z,1011.97
2023-02-24T05:39:03.650Z,1012.00
2023-02-24T05:40:04.080Z,1011.99
2023-02-24T05:41:03.606Z,1011.95
2023-02-24T05:42:03.653Z,1011.95
2023-02-24T05:43:03.581Z,1011.86
2023-02-24T05:44:03.729Z,1011.90
2023-02-24T05:45:03.637Z,1011.86
2023-02-24T05:46:03.616Z,1011.86
2023-02-24T05:47:03.617Z,1011.88
2023-02-24T05:48:03.508Z,1011.79
2023-02-24T05:49:03.517Z,1011.75
2023-02-24T05:50:03.489Z,1011.79
2023-02-24T05:51:05.163Z,1011.79
2023-02-24T05:52:03.476Z,1011.78
2023-02-24T05:53:03.476Z,1011.80
2023-02-24T05:54:03.425Z,1011.83
2023-02-24T05:55:03.428Z,1011.79
2023-02-24T05:56:03.415Z,1011.80
2023-02-24T05:57:03.421Z,1011.81
2023-02-24T05:58:03.324Z,1011.80
2023-02-24T05:59:03.313Z,1011.83
2023-02-24T06:00:03.297Z,1011.79
2023-02-24T06:01:03.297Z,1011.85
2023-02-24T06:02:03.415Z,1011.86
2023-02-24T06:03:03.355Z,1011.84
2023-02-24T06:04:03.245Z,1011.88
2023-02-24T06:05:03.275Z,1011.82
2023-02-24T06:06:03.243Z,1011.85
2023-02-24T06:07:03.227Z,1011.88
2023-02-24T06:08:03.201Z,1011.87
2023-02-24T06:09:03.183Z,1011.85
2023-02-24T06:10:03.166Z,1011.85
2023-02-24T06:11:03.159Z,1011.84
2023-02-24T06:12:03.197Z,1011.88
2023-02-24T06:13:03.128Z,1011.84
2023-02-24T06:14:03.127Z,1011.88
2023-02-24T06:15:03.107Z,1011.82
2023-02-24T06:16:03.099Z,1011.78
2023-02-24T06:17:03.078Z,1011.76
2023-02-24T06:18:03.075Z,1011.73
2023-02-24T06:19:03.076Z,1011.76
2023-02-24T06:20:03.044Z,1011.65
2023-02-24T06:21:03.028Z,1011.70
2023-02-24T06:22:03.008Z,1011.68
2023-02-24T06:23:03.001Z,1011.65
2023-02-24T06:24:03.031Z,1011.65
2023-02-24T06:25:02.979Z,1011.63
2023-02-24T06:26:02.959Z,1011.61
2023-02-24T06:27:02.951Z,1011.61
2023-02-24T06:28:02.931Z,1011.60
2023-02-24T06:29:02.937Z,1011.61
2023-02-24T06:30:02.911Z,1011.60
2023-02-24T06:31:02.971Z,1011.62
2023-02-24T06:32:03.000Z,1011.64
2023-02-24T06:33:02.870Z,1011.62
2023-02-24T06:34:02.890Z,1011.62
2023-02-24T06:35:02.852Z,1011.66
2023-02-24T06:36:02.829Z,1011.63
2023-02-24T06:37:02.825Z,1011.66
2023-02-24T06:38:02.805Z,1011.69
2023-02-24T06:39:02.804Z,1011.69
2023-02-24T06:40:02.797Z,1011.72
2023-02-24T06:41:02.775Z,1011.68
2023-02-24T06:42:02.753Z,1011.69
2023-02-24T06:43:08.165Z,1011.65
2023-02-24T06:44:02.730Z,1011.66
2023-02-24T06:45:02.790Z,1011.64
2023-02-24T06:46:02.905Z,1011.65
2023-02-24T06:47:02.697Z,1011.68
2023-02-24T06:48:02.679Z,1011.67
2023-02-24T06:49:02.672Z,1011.64
2023-02-24T06:50:02.685Z,1011.68
2023-02-24T06:51:02.639Z,1011.69
2023-02-24T06:52:02.812Z,1011.66
2023-02-24T06:53:02.652Z,1011.71
2023-02-24T06:54:02.621Z,1011.62
2023-02-24T06:55:02.613Z,1011.57
2023-02-24T06:56:02.569Z,1011.59
2023-02-24T06:57:02.562Z,1011.60
2023-02-24T06:58:02.565Z,1011.62
2023-02-24T06:59:02.534Z,1011.58
2023-02-24T07:00:02.538Z,1011.60
2023-02-24T07:01:02.549Z,1011.59
2023-02-24T07:02:02.529Z,1011.65
2023-02-24T07:03:02.511Z,1011.61
2023-02-24T07:04:02.580Z,1011.54
2023-02-24T07:05:02.463Z,1011.54
2023-02-24T07:06:02.443Z,1011.53
2023-02-24T07:07:02.428Z,1011.54
2023-02-24T07:08:02.437Z,1011.57
2023-02-24T07:09:02.408Z,1011.55
2023-02-24T07:10:02.393Z,1011.57
2023-02-24T07:11:02.392Z,1011.57
2023-02-24T07:12:02.373Z,1011.57
2023-02-24T07:13:02.373Z,1011.57
2023-02-24T07:14:02.340Z,1011.61
2023-02-24T07:15:02.348Z,1011.63
2023-02-24T07:16:02.312Z,1011.66
2023-02-24T07:17:02.343Z,1011.65
2023-02-24T07:18:02.281Z,1011.64
2023-02-24T07:19:02.278Z,1011.67
2023-02-24T07:20:02.322Z,1011.63
2023-02-24T07:21:02.254Z,1011.62
2023-02-24T07:22:02.275Z,1011.64
2023-02-24T07:23:02.224Z,1011.62
2023-02-24T07:24:02.222Z,1011.64
2023-02-24T07:25:02.217Z,1011.62
2023-02-24T07:26:02.181Z,1011.67
2023-02-24T07:27:02.165Z,1011.68
2023-02-24T07:28:02.152Z,1011.69
2023-02-24T07:29:02.150Z,1011.69
2023-02-24T07:30:02.191Z,1011.71
2023-02-24T07:31:02.283Z,1011.67
2023-02-24T07:32:02.198Z,1011.66
2023-02-24T07:33:02.088Z,1011.64
2023-02-24T07:34:02.066Z,1011.64
2023-02-24T07:35:02.106Z,1011.60
2023-02-24T07:36:02.039Z,1011.64
2023-02-24T07:37:02.040Z,1011.66
2023-02-24T07:38:02.033Z,1011.67
2023-02-24T07:39:02.011Z,1011.65
2023-02-24T07:40:02.034Z,1011.61
2023-02-24T07:41:01.982Z,1011.65
2023-02-24T07:42:01.962Z,1011.62
2023-02-24T07:43:01.954Z,1011.58
2023-02-24T07:44:01.953Z,1011.64
2023-02-24T07:45:02.001Z,1011.57
2023-02-24T07:46:01.917Z,1011.57
2023-02-24T07:47:01.913Z,1011.55
2023-02-24T07:48:01.888Z,1011.54
2023-02-24T07:49:01.888Z,1011.56
2023-02-24T07:50:01.862Z,1011.55
2023-02-24T07:51:01.845Z,1011.54
2023-02-24T07:52:01.841Z,1011.58
2023-02-24T07:53:01.823Z,1011.57
2023-02-24T07:54:01.829Z,1011.55
2023-02-24T07:55:01.797Z,1011.55
2023-02-24T07:56:01.789Z,1011.58
2023-02-24T07:57:01.787Z,1011.55
2023-02-24T07:58:01.765Z,1011.56
2023-02-24T07:59:01.757Z,1011.55
2023-02-24T08:00:01.743Z,1011.52
2023-02-24T08:01:01.718Z,1011.55
2023-02-24T08:02:01.700Z,1011.54
2023-02-24T08:03:01.691Z,1011.61
2023-02-24T08:04:01.677Z,1011.61
2023-02-24T08:05:01.678Z,1011.60
2023-02-24T08:06:01.646Z,1011.62
2023-02-24T08:07:01.630Z,1011.59
2023-02-24T08:08:01.623Z,1011.61
2023-02-24T08:09:01.606Z,1011.57
2023-02-24T08:10:01.656Z,1011.56
2023-02-24T08:11:01.585Z,1011.55
2023-02-24T08:12:01.590Z,1011.48
2023-02-24T08:13:01.570Z,1011.49
2023-02-24T08:14:01.556Z,1011.49
2023-02-24T08:15:01.554Z,1011.49
2023-02-24T08:16:01.564Z,1011.43
2023-02-24T08:17:01.523Z,1011.43
2023-02-24T08:18:01.507Z,1011.45
2023-02-24T08:19:01.478Z,1011.39
2023-02-24T08:20:01.534Z,1011.40
2023-02-24T08:21:01.464Z,1011.40
2023-02-24T08:22:01.444Z,1011.47
2023-02-24T08:23:01.442Z,1011.35
2023-02-24T08:24:01.425Z,1011.40
2023-02-24T08:25:01.427Z,1011.41
2023-02-24T08:26:01.405Z,1011.41
2023-02-24T08:27:01.372Z,1011.37
2023-02-24T08:28:08.025Z,1011.38
2023-02-24T08:29:01.351Z,1011.36
2023-02-24T08:30:01.369Z,1011.31
2023-02-24T08:31:01.409Z,1011.30
2023-02-24T08:32:01.415Z,1011.31
2023-02-24T08:33:01.294Z,1011.24
2023-02-24T08:34:01.283Z,1011.28
2023-02-24T08:35:01.264Z,1011.24
2023-02-24T08:36:01.937Z,1011.18
2023-02-24T08:37:01.249Z,1011.20
2023-02-24T08:38:01.236Z,1011.21
2023-02-24T08:39:01.213Z,1011.23
2023-02-24T08:40:01.194Z,1011.20
2023-02-24T08:41:01.216Z,1011.19
2023-02-24T08:42:01.195Z,1011.24
2023-02-24T08:43:01.158Z,1011.24
2023-02-24T08:44:01.154Z,1011.19
2023-02-24T08:45:01.135Z,1011.19
2023-02-24T08:46:01.167Z,1011.17
2023-02-24T08:47:01.211Z,1011.14
2023-02-24T08:48:01.106Z,1011.19
2023-02-24T08:49:01.289Z,1011.17
2023-02-24T08:50:01.084Z,1011.16
2023-02-24T08:51:01.124Z,1011.12
2023-02-24T08:52:01.059Z,1011.15
2023-02-24T08:53:01.039Z,1011.11
2023-02-24T08:54:01.105Z,1011.13
2023-02-24T08:55:01.016Z,1011.11
2023-02-24T08:56:01.020Z,1011.07
2023-02-24T08:57:00.978Z,1011.10
2023-02-24T08:58:00.980Z,1011.06
2023-02-24T08:59:00.963Z,1011.09
2023-02-24T09:00:01.031Z,1011.11
2023-02-24T09:01:01.077Z,1011.10
2023-02-24T09:02:04.752Z,1011.04
2023-02-24T09:03:00.908Z,1011.02
2023-02-24T09:04:07.419Z,1011.06
2023-02-24T09:05:00.961Z,1011.03
2023-02-24T09:06:00.938Z,1011.12
2023-02-24T09:07:11.238Z,1011.01
2023-02-24T09:08:00.865Z,1011.04
2023-02-24T09:09:00.834Z,1011.04
2023-02-24T09:10:01.028Z,1011.04
2023-02-24T09:11:00.817Z,1011.04
2023-02-24T09:12:00.840Z,1011.07
2023-02-24T09:13:00.805Z,1011.05
2023-02-24T09:14:00.777Z,1011.03
2023-02-24T09:15:00.753Z,1011.02
2023-02-24T09:16:00.887Z,1011.02
2023-02-24T09:17:00.771Z,1011.00
2023-02-24T09:18:00.735Z,1010.96
2023-02-24T09:19:00.718Z,1010.97
2023-02-24T09:20:00.796Z,1011.03
2023-02-24T09:21:00.700Z,1010.98
2023-02-24T09:22:01.824Z,1011.01
2023-02-24T09:23:00.792Z,1011.00
2023-02-24T09:24:00.752Z,1011.00
2023-02-24T09:25:00.652Z,1010.96
2023-02-24T09:26:00.669Z,1010.96
2023-02-24T09:27:00.669Z,1010.90
2023-02-24T09:28:00.584Z,1010.91
2023-02-24T09:29:00.679Z,1010.94
2023-02-24T09:30:00.598Z,1010.91
2023-02-24T09:31:00.608Z,1010.93
2023-02-24T09:32:00.766Z,1010.88
2023-02-24T09:33:00.670Z,1010.88
2023-02-24T09:34:00.590Z,1010.88
2023-02-24T09:35:00.504Z,1010.88
2023-02-24T09:36:00.536Z,1010.81
2023-02-24T09:37:00.494Z,1010.78
2023-02-24T09:38:00.522Z,1010.75
2023-02-24T09:39:00.605Z,1010.74
2023-02-24T09:40:00.461Z,1010.73
2023-02-24T09:41:07.480Z,1010.76
2023-02-24T09:42:00.431Z,1010.73
2023-02-24T09:43:00.389Z,1010.68
2023-02-24T09:44:00.372Z,1010.64
2023-02-24T09:45:00.377Z,1010.69
2023-02-24T09:46:00.568Z,1010.64
2023-02-24T09:47:00.352Z,1010.64
2023-02-24T09:48:00.374Z,1010.64
2023-02-24T09:49:00.363Z,1010.62
2023-02-24T09:50:00.830Z,1010.66
2023-02-24T09:51:03.774Z,1010.59
2023-02-24T09:52:00.474Z,1010.58
2023-02-24T09:53:10.812Z,1010.54
2023-02-24T09:54:00.316Z,1010.55
2023-02-24T09:55:00.250Z,1010.53
2023-02-24T09:56:00.361Z,1010.53
2023-02-24T09:57:00.204Z,1010.55
2023-02-24T09:58:00.221Z,1010.51
2023-02-24T09:59:00.176Z,1010.49
2023-02-24T10:00:00.194Z,1010.50
2023-02-24T10:01:00.261Z,1010.50
2023-02-24T10:02:00.222Z,1010.50
2023-02-24T10:03:00.415Z,1010.51
2023-02-24T10:04:02.354Z,1010.48
2023-02-24T10:05:00.109Z,1010.38
2023-02-24T10:06:00.119Z,1010.39
2023-02-24T10:07:00.150Z,1010.36
2023-02-24T10:08:00.128Z,1010.35
2023-02-24T10:09:00.106Z,1010.32
2023-02-24T10:10:00.027Z,1010.33
2023-02-24T10:11:00.094Z,1010.30
2023-02-24T10:12:00.059Z,1010.27
2023-02-24T10:13:00.043Z,1010.30
2023-02-24T10:14:07.176Z,1010.23
2023-02-24T10:15:00.947Z,1010.29
2023-02-24T10:16:05.929Z,1010.24
2023-02-24T10:17:00.018Z,1010.25
2023-02-24T10:18:00.019Z,1010.22
2023-02-24T10:18:59.922Z,1010.18
2023-02-24T10:19:59.984Z,1010.15
2023-02-24T10:20:59.920Z,1010.23
2023-02-24T10:21:59.890Z,1010.19
2023-02-24T10:22:59.932Z,1010.22
2023-02-24T10:23:59.860Z,1010.18
2023-02-24T10:24:59.896Z,1010.12
2023-02-24T10:25:59.896Z,1010.12
2023-02-24T10:27:07.373Z,1010.06
2023-02-24T10:27:59.820Z,1010.07
2023-02-24T10:28:59.895Z,1010.02
2023-02-24T10:29:59.776Z,1010.08
2023-02-24T10:30:59.878Z,1010.05
2023-02-24T10:32:00.013Z,1009.98
2023-02-24T10:32:59.774Z,1009.93
2023-02-24T10:33:59.783Z,1010.00
2023-02-24T10:34:59.694Z,1009.99
2023-02-24T10:35:59.763Z,1009.92
2023-02-24T10:36:59.696Z,1009.92
2023-02-24T10:37:59.667Z,1009.89
2023-02-24T10:38:59.651Z,1009.91
2023-02-24T10:39:59.664Z,1009.90
2023-02-24T10:40:59.630Z,1009.85
2023-02-24T10:41:59.772Z,1009.88
2023-02-24T10:42:59.587Z,1009.87
2023-02-24T10:43:59.783Z,1009.90
2023-02-24T10:45:02.552Z,1009.84
2023-02-24T10:45:59.616Z,1009.81
2023-02-24T10:46:59.771Z,1009.83
2023-02-24T10:47:59.546Z,1009.81
2023-02-24T10:48:59.511Z,1009.77
2023-02-24T10:49:59.527Z,1009.83
2023-02-24T10:50:59.493Z,1009.79
2023-02-24T10:51:59.503Z,1009.79
2023-02-24T10:52:59.501Z,1009.73
2023-02-24T10:53:59.464Z,1009.76
2023-02-24T10:54:59.435Z,1009.74
2023-02-24T10:55:59.423Z,1009.78
2023-02-24T10:56:59.400Z,1009.80
2023-02-24T10:57:59.635Z,1009.68
2023-02-24T10:59:01.522Z,1009.71
2023-02-24T10:59:59.382Z,1009.74
2023-02-24T11:00:59.396Z,1009.67
2023-02-24T11:01:59.420Z,1009.61
2023-02-24T11:02:59.340Z,1009.64
2023-02-24T11:03:59.310Z,1009.57
2023-02-24T11:05:00.084Z,1009.59
2023-02-24T11:05:59.306Z,1009.57
2023-02-24T11:06:59.440Z,1009.53
2023-02-24T11:07:59.263Z,1009.56
2023-02-24T11:08:59.345Z,1009.49
2023-02-24T11:09:59.243Z,1009.46
2023-02-24T11:10:59.302Z,1009.47
2023-02-24T11:11:59.217Z,1009.52
2023-02-24T11:13:08.988Z,1009.45
2023-02-24T11:13:59.224Z,1009.41
2023-02-24T11:14:59.183Z,1009.44
2023-02-24T11:15:59.205Z,1009.33
2023-02-24T11:16:59.233Z,1009.37
2023-02-24T11:17:59.215Z,1009.29
2023-02-24T11:18:59.107Z,1009.25
2023-02-24T11:19:59.109Z,1009.26
2023-02-24T11:20:59.122Z,1009.23
2023-02-24T11:21:59.063Z,1009.26
2023-02-24T11:22:59.077Z,1009.20
2023-02-24T11:23:59.098Z,1009.16
2023-02-24T11:25:01.509Z,1009.21
2023-02-24T11:25:59.026Z,1009.18
2023-02-24T11:26:58.997Z,1009.14
2023-02-24T11:27:59.094Z,1009.05
2023-02-24T11:28:59.001Z,1009.07
2023-02-24T11:29:59.021Z,1009.08
2023-02-24T11:30:59.073Z,1009.05
2023-02-24T11:31:59.106Z,1009.04
2023-02-24T11:32:58.999Z,1009.04
2023-02-24T11:33:58.915Z,1009.00
2023-02-24T11:34:58.922Z,1008.96
2023-02-24T11:35:58.877Z,1008.97
2023-02-24T11:36:58.880Z,1008.82
2023-02-24T11:37:58.848Z,1008.89
2023-02-24T11:39:15.253Z,1008.86
2023-02-24T11:39:59.022Z,1008.86
2023-02-24T11:40:58.830Z,1008.79
2023-02-24T11:41:58.819Z,1008.82
2023-02-24T11:42:58.810Z,1008.79
2023-02-24T11:43:58.769Z,1008.80
2023-02-24T11:44:58.851Z,1008.78
2023-02-24T11:45:58.803Z,1008.74
2023-02-24T11:46:58.795Z,1008.75
2023-02-24T11:47:58.736Z,1008.77
2023-02-24T11:48:58.721Z,1008.74
2023-02-24T11:49:58.691Z,1008.72
2023-02-24T11:50:58.733Z,1008.77
2023-02-24T11:51:58.664Z,1008.70
2023-02-24T11:52:58.648Z,1008.73
2023-02-24T11:53:58.845Z,1008.66
2023-02-24T11:54:58.623Z,1008.62
2023-02-24T11:55:59.347Z,1008.59
2023-02-24T11:56:58.600Z,1008.60
2023-02-24T11:57:58.587Z,1008.52
2023-02-24T11:58:58.682Z,1008.50
2023-02-24T11:59:58.625Z,1008.52
2023-02-24T12:00:58.552Z,1008.45
2023-02-24T12:01:58.650Z,1008.42
2023-02-24T12:02:58.575Z,1008.39
2023-02-24T12:03:58.516Z,1008.39
2023-02-24T12:04:58.485Z,1008.38